Terminal Aerodrome Forecast
Issued by NWS Wilmington, OH

Current Version | Previous Version | Graphics & Text | Print | Product List | Glossary On
Versions: 1 2 3 4 5 6 7 8 9 10 11 12 13 14 15 16 17 18 19 20 21 22 23 24 25 26 27 28 29 30 31 32 33 34
000
FTUS41 KILN 191200 AAA
TAFCVG
TAF AMD
KCVG 191246Z 1913/2018 12004KT P6SM VCSH BKN070 OVC090
      TEMPO 1913/1915 BKN015
     FM191800 11007KT P6SM VCSH BKN022 OVC080
      TEMPO 1919/1923 -SHRA OVC015
     FM200100 11003KT P6SM VCSH OVC018
     FM201300 04005KT P6SM OVC025=

USA.gov is the U.S. government's official web portal to all federal, state and local government web resources and services.